sensor_id;sensor_type;location;lat;lon;timestamp;temperature;humidity
37886;DHT22;23726;52.520;13.434;2023-01-15T00:03:46;22.80;40.40
37886;DHT22;23726;52.520;13.434;2023-01-15T00:06:11;22.80;39.90
37886;DHT22;23726;52.520;13.434;2023-01-15T00:08:38;22.80;39.90
37886;DHT22;23726;52.520;13.434;2023-01-15T00:11:04;22.80;40.00
37886;DHT22;23726;52.520;13.434;2023-01-15T00:13:29;22.90;40.00
37886;DHT22;23726;52.520;13.434;2023-01-15T00:16:03;22.90;40.00
37886;DHT22;23726;52.520;13.434;2023-01-15T00:18:28;22.90;40.10
37886;DHT22;23726;52.520;13.434;2023-01-15T00:20:59;22.90;40.00
37886;DHT22;23726;52.520;13.434;2023-01-15T00:23:26;22.90;40.10
37886;DHT22;23726;52.520;13.434;2023-01-15T00:26:13;22.90;40.10
37886;DHT22;23726;52.520;13.434;2023-01-15T00:28:58;23.00;40.60
37886;DHT22;23726;52.520;13.434;2023-01-15T00:31:24;23.00;40.10
37886;DHT22;23726;52.520;13.434;2023-01-15T00:33:49;23.00;40.20
37886;DHT22;23726;52.520;13.434;2023-01-15T00:36:16;23.00;40.20
37886;DHT22;23726;52.520;13.434;2023-01-15T00:38:42;23.00;40.20
37886;DHT22;23726;52.520;13.434;2023-01-15T00:41:07;23.00;40.10
37886;DHT22;23726;52.520;13.434;2023-01-15T00:43:33;23.10;40.30
37886;DHT22;23726;52.520;13.434;2023-01-15T00:45:59;23.00;40.20
37886;DHT22;23726;52.520;13.434;2023-01-15T00:48:29;23.10;40.30
37886;DHT22;23726;52.520;13.434;2023-01-15T00:50:55;23.10;40.40
37886;DHT22;23726;52.520;13.434;2023-01-15T00:53:21;23.10;40.20
37886;DHT22;23726;52.520;13.434;2023-01-15T00:55:46;23.10;40.30
37886;DHT22;23726;52.520;13.434;2023-01-15T00:58:12;23.10;40.30
37886;DHT22;23726;52.520;13.434;2023-01-15T01:00:38;23.10;40.30
37886;DHT22;23726;52.520;13.434;2023-01-15T01:03:06;23.10;40.30
37886;DHT22;23726;52.520;13.434;2023-01-15T01:05:32;23.10;40.30
37886;DHT22;23726;52.520;13.434;2023-01-15T01:08:01;23.10;40.40
37886;DHT22;23726;52.520;13.434;2023-01-15T01:10:28;23.10;40.40
37886;DHT22;23726;52.520;13.434;2023-01-15T01:12:55;23.10;40.30
37886;DHT22;23726;52.520;13.434;2023-01-15T01:15:21;23.10;40.40
37886;DHT22;23726;52.520;13.434;2023-01-15T01:17:48;23.10;40.50
37886;DHT22;23726;52.520;13.434;2023-01-15T01:20:16;23.10;40.30
37886;DHT22;23726;52.520;13.434;2023-01-15T01:22:42;23.10;40.40
37886;DHT22;23726;52.520;13.434;2023-01-15T01:25:09;23.10;40.60
37886;DHT22;23726;52.520;13.434;2023-01-15T01:27:35;23.10;40.50
37886;DHT22;23726;52.520;13.434;2023-01-15T01:30:01;23.10;40.50
37886;DHT22;23726;52.520;13.434;2023-01-15T01:32:26;23.10;40.50
37886;DHT22;23726;52.520;13.434;2023-01-15T01:34:52;23.10;40.50
37886;DHT22;23726;52.520;13.434;2023-01-15T01:37:18;23.10;40.50
37886;DHT22;23726;52.520;13.434;2023-01-15T01:39:46;23.00;40.50
37886;DHT22;23726;52.520;13.434;2023-01-15T01:42:16;23.00;40.60
37886;DHT22;23726;52.520;13.434;2023-01-15T01:47:14;23.00;40.50
37886;DHT22;23726;52.520;13.434;2023-01-15T01:49:44;23.00;40.50
37886;DHT22;23726;52.520;13.434;2023-01-15T01:52:17;23.00;40.50
37886;DHT22;23726;52.520;13.434;2023-01-15T01:54:46;23.00;40.60
37886;DHT22;23726;52.520;13.434;2023-01-15T01:57:16;22.90;40.50
37886;DHT22;23726;52.520;13.434;2023-01-15T01:59:44;22.90;40.60
37886;DHT22;23726;52.520;13.434;2023-01-15T02:02:10;22.90;40.80
37886;DHT22;23726;52.520;13.434;2023-01-15T02:04:37;22.90;40.50
37886;DHT22;23726;52.520;13.434;2023-01-15T02:07:03;22.90;40.60
37886;DHT22;23726;52.520;13.434;2023-01-15T02:09:29;22.90;40.60
37886;DHT22;23726;52.520;13.434;2023-01-15T02:12:02;22.90;40.50
37886;DHT22;23726;52.520;13.434;2023-01-15T02:14:42;22.90;40.70
37886;DHT22;23726;52.520;13.434;2023-01-15T02:17:20;22.90;40.70
37886;DHT22;23726;52.520;13.434;2023-01-15T02:19:49;22.90;40.70
37886;DHT22;23726;52.520;13.434;2023-01-15T02:22:27;22.90;40.80
37886;DHT22;23726;52.520;13.434;2023-01-15T02:25:16;22.90;40.80
37886;DHT22;23726;52.520;13.434;2023-01-15T02:27:54;22.90;40.80
37886;DHT22;23726;52.520;13.434;2023-01-15T02:30:28;22.90;40.80
37886;DHT22;23726;52.520;13.434;2023-01-15T02:33:21;22.90;41.00
37886;DHT22;23726;52.520;13.434;2023-01-15T02:35:53;22.90;41.10
37886;DHT22;23726;52.520;13.434;2023-01-15T02:38:23;22.90;41.10
37886;DHT22;23726;52.520;13.434;2023-01-15T02:40:53;22.90;41.10
37886;DHT22;23726;52.520;13.434;2023-01-15T02:43:22;22.90;41.10
37886;DHT22;23726;52.520;13.434;2023-01-15T02:45:52;22.90;41.10
37886;DHT22;23726;52.520;13.434;2023-01-15T02:48:21;22.90;41.10
37886;DHT22;23726;52.520;13.434;2023-01-15T02:50:53;22.90;41.10
37886;DHT22;23726;52.520;13.434;2023-01-15T02:53:24;22.90;41.10
37886;DHT22;23726;52.520;13.434;2023-01-15T02:55:53;22.90;41.10
37886;DHT22;23726;52.520;13.434;2023-01-15T02:58:24;22.90;41.20
37886;DHT22;23726;52.520;13.434;2023-01-15T03:00:53;22.90;41.20
37886;DHT22;23726;52.520;13.434;2023-01-15T03:06:19;22.90;41.20
37886;DHT22;23726;52.520;13.434;2023-01-15T03:08:47;22.90;41.30
37886;DHT22;23726;52.520;13.434;2023-01-15T03:11:18;22.90;41.30
37886;DHT22;23726;52.520;13.434;2023-01-15T03:16:27;22.80;41.00
37886;DHT22;23726;52.520;13.434;2023-01-15T03:22:48;22.80;41.30
37886;DHT22;23726;52.520;13.434;2023-01-15T03:25:09;22.80;41.40
37886;DHT22;23726;52.520;13.434;2023-01-15T03:27:37;22.80;41.30
37886;DHT22;23726;52.520;13.434;2023-01-15T03:30:06;22.80;41.40
37886;DHT22;23726;52.520;13.434;2023-01-15T03:32:32;22.80;41.20
37886;DHT22;23726;52.520;13.434;2023-01-15T03:34:59;22.80;41.20
37886;DHT22;23726;52.520;13.434;2023-01-15T03:37:28;22.80;41.30
37886;DHT22;23726;52.520;13.434;2023-01-15T03:39:55;22.80;41.40
37886;DHT22;23726;52.520;13.434;2023-01-15T03:45:02;22.80;41.10
37886;DHT22;23726;52.520;13.434;2023-01-15T03:48:00;22.80;41.40
37886;DHT22;23726;52.520;13.434;2023-01-15T03:53:07;22.80;41.10
37886;DHT22;23726;52.520;13.434;2023-01-15T03:58:38;22.80;41.50
37886;DHT22;23726;52.520;13.434;2023-01-15T04:01:10;22.80;41.20
37886;DHT22;23726;52.520;13.434;2023-01-15T04:03:38;22.80;41.50
37886;DHT22;23726;52.520;13.434;2023-01-15T04:06:06;22.80;41.40
37886;DHT22;23726;52.520;13.434;2023-01-15T04:08:39;22.90;41.50
37886;DHT22;23726;52.520;13.434;2023-01-15T04:11:05;22.90;41.50
37886;DHT22;23726;52.520;13.434;2023-01-15T04:13:32;22.80;42.00
37886;DHT22;23726;52.520;13.434;2023-01-15T04:15:58;22.80;41.10
37886;DHT22;23726;52.520;13.434;2023-01-15T04:18:25;22.80;41.70
37886;DHT22;23726;52.520;13.434;2023-01-15T04:20:52;22.80;41.60
37886;DHT22;23726;52.520;13.434;2023-01-15T04:23:19;22.80;41.20
37886;DHT22;23726;52.520;13.434;2023-01-15T04:25:44;22.80;41.70
37886;DHT22;23726;52.520;13.434;2023-01-15T04:28:10;22.80;41.70
37886;DHT22;23726;52.520;13.434;2023-01-15T04:30:37;22.80;41.70
37886;DHT22;23726;52.520;13.434;2023-01-15T04:33:03;22.80;41.80
37886;DHT22;23726;52.520;13.434;2023-01-15T04:35:29;22.90;41.50
37886;DHT22;23726;52.520;13.434;2023-01-15T04:37:59;22.80;41.70
37886;DHT22;23726;52.520;13.434;2023-01-15T04:40:26;22.80;41.70
37886;DHT22;23726;52.520;13.434;2023-01-15T04:43:12;22.90;41.80
37886;DHT22;23726;52.520;13.434;2023-01-15T04:45:56;22.80;41.60
37886;DHT22;23726;52.520;13.434;2023-01-15T04:48:23;22.80;41.80
37886;DHT22;23726;52.520;13.434;2023-01-15T04:50:48;22.80;41.80
37886;DHT22;23726;52.520;13.434;2023-01-15T04:53:15;22.80;41.50
37886;DHT22;23726;52.520;13.434;2023-01-15T04:55:41;22.80;41.30
37886;DHT22;23726;52.520;13.434;2023-01-15T04:58:07;22.80;41.50
37886;DHT22;23726;52.520;13.434;2023-01-15T05:00:32;22.80;41.50
37886;DHT22;23726;52.520;13.434;2023-01-15T05:02:58;22.80;41.80
37886;DHT22;23726;52.520;13.434;2023-01-15T05:05:24;22.80;41.50
37886;DHT22;23726;52.520;13.434;2023-01-15T05:07:50;22.80;41.50
37886;DHT22;23726;52.520;13.434;2023-01-15T05:10:17;22.80;41.50
37886;DHT22;23726;52.520;13.434;2023-01-15T05:12:43;22.80;41.80
37886;DHT22;23726;52.520;13.434;2023-01-15T05:15:12;22.80;41.80
37886;DHT22;23726;52.520;13.434;2023-01-15T05:17:38;22.80;41.70
37886;DHT22;23726;52.520;13.434;2023-01-15T05:20:05;22.80;41.80
37886;DHT22;23726;52.520;13.434;2023-01-15T05:22:30;22.80;41.50
37886;DHT22;23726;52.520;13.434;2023-01-15T05:24:57;22.80;41.40
37886;DHT22;23726;52.520;13.434;2023-01-15T05:27:23;22.80;41.80
37886;DHT22;23726;52.520;13.434;2023-01-15T05:29:48;22.80;41.70
37886;DHT22;23726;52.520;13.434;2023-01-15T05:32:14;22.80;41.60
37886;DHT22;23726;52.520;13.434;2023-01-15T05:34:39;22.80;41.80
37886;DHT22;23726;52.520;13.434;2023-01-15T05:37:06;22.80;41.30
37886;DHT22;23726;52.520;13.434;2023-01-15T05:39:32;22.80;41.40
37886;DHT22;23726;52.520;13.434;2023-01-15T05:41:57;22.80;41.60
37886;DHT22;23726;52.520;13.434;2023-01-15T05:44:27;22.80;41.30
37886;DHT22;23726;52.520;13.434;2023-01-15T05:46:59;22.80;41.60
37886;DHT22;23726;52.520;13.434;2023-01-15T05:49:27;22.80;41.90
37886;DHT22;23726;52.520;13.434;2023-01-15T05:51:56;22.80;41.80
37886;DHT22;23726;52.520;13.434;2023-01-15T05:54:26;22.80;41.30
37886;DHT22;23726;52.520;13.434;2023-01-15T05:56:53;22.80;41.40
37886;DHT22;23726;52.520;13.434;2023-01-15T05:59:22;22.80;41.50
37886;DHT22;23726;52.520;13.434;2023-01-15T06:01:49;22.80;41.30
37886;DHT22;23726;52.520;13.434;2023-01-15T06:04:15;22.80;41.40
37886;DHT22;23726;52.520;13.434;2023-01-15T06:06:45;22.80;41.40
37886;DHT22;23726;52.520;13.434;2023-01-15T06:09:13;22.80;41.40
37886;DHT22;23726;52.520;13.434;2023-01-15T06:11:39;22.80;41.40
37886;DHT22;23726;52.520;13.434;2023-01-15T06:14:04;22.80;41.40
37886;DHT22;23726;52.520;13.434;2023-01-15T06:16:31;22.80;41.40
37886;DHT22;23726;52.520;13.434;2023-01-15T06:19:03;22.80;41.40
37886;DHT22;23726;52.520;13.434;2023-01-15T06:21:32;22.80;41.80
37886;DHT22;23726;52.520;13.434;2023-01-15T06:23:58;22.80;41.50
37886;DHT22;23726;52.520;13.434;2023-01-15T06:26:25;22.80;41.60
37886;DHT22;23726;52.520;13.434;2023-01-15T06:28:51;22.80;41.50
37886;DHT22;23726;52.520;13.434;2023-01-15T06:31:19;22.80;41.90
37886;DHT22;23726;52.520;13.434;2023-01-15T06:33:45;22.80;41.80
37886;DHT22;23726;52.520;13.434;2023-01-15T06:36:16;22.80;41.70
37886;DHT22;23726;52.520;13.434;2023-01-15T06:38:43;22.80;41.60
37886;DHT22;23726;52.520;13.434;2023-01-15T06:41:20;22.80;41.90
37886;DHT22;23726;52.520;13.434;2023-01-15T06:44:24;22.80;42.00
37886;DHT22;23726;52.520;13.434;2023-01-15T06:47:14;22.80;42.20
37886;DHT22;23726;52.520;13.434;2023-01-15T06:49:48;22.80;41.80
37886;DHT22;23726;52.520;13.434;2023-01-15T06:52:15;22.80;41.90
37886;DHT22;23726;52.520;13.434;2023-01-15T06:54:40;22.80;41.60
37886;DHT22;23726;52.520;13.434;2023-01-15T06:57:06;22.80;41.80
37886;DHT22;23726;52.520;13.434;2023-01-15T06:59:32;22.80;41.50
37886;DHT22;23726;52.520;13.434;2023-01-15T07:01:57;22.80;41.80
37886;DHT22;23726;52.520;13.434;2023-01-15T07:04:23;22.80;41.80
37886;DHT22;23726;52.520;13.434;2023-01-15T07:06:49;22.80;41.90
37886;DHT22;23726;52.520;13.434;2023-01-15T07:09:15;22.80;41.70
37886;DHT22;23726;52.520;13.434;2023-01-15T07:11:41;22.80;41.70
37886;DHT22;23726;52.520;13.434;2023-01-15T07:14:21;22.80;41.70
37886;DHT22;23726;52.520;13.434;2023-01-15T07:16:47;22.80;41.60
37886;DHT22;23726;52.520;13.434;2023-01-15T07:19:13;22.80;41.60
37886;DHT22;23726;52.520;13.434;2023-01-15T07:21:39;22.80;41.70
37886;DHT22;23726;52.520;13.434;2023-01-15T07:24:05;22.80;41.70
37886;DHT22;23726;52.520;13.434;2023-01-15T07:26:31;22.80;41.70
37886;DHT22;23726;52.520;13.434;2023-01-15T07:28:56;22.80;41.80
37886;DHT22;23726;52.520;13.434;2023-01-15T07:31:31;22.80;41.70
37886;DHT22;23726;52.520;13.434;2023-01-15T07:33:56;22.80;41.80
37886;DHT22;23726;52.520;13.434;2023-01-15T07:36:23;22.80;41.70
37886;DHT22;23726;52.520;13.434;2023-01-15T07:38:50;22.80;41.70
37886;DHT22;23726;52.520;13.434;2023-01-15T07:41:17;22.80;41.70
37886;DHT22;23726;52.520;13.434;2023-01-15T07:44:01;22.80;41.70
37886;DHT22;23726;52.520;13.434;2023-01-15T07:46:45;22.80;41.90
37886;DHT22;23726;52.520;13.434;2023-01-15T07:49:30;22.80;41.80
37886;DHT22;23726;52.520;13.434;2023-01-15T07:52:20;22.70;41.90
37886;DHT22;23726;52.520;13.434;2023-01-15T07:54:47;22.70;41.80
37886;DHT22;23726;52.520;13.434;2023-01-15T07:57:19;22.80;41.90
37886;DHT22;23726;52.520;13.434;2023-01-15T07:59:45;22.80;42.10
37886;DHT22;23726;52.520;13.434;2023-01-15T08:02:11;22.70;42.00
37886;DHT22;23726;52.520;13.434;2023-01-15T08:04:37;22.80;42.10
37886;DHT22;23726;52.520;13.434;2023-01-15T08:07:05;22.80;41.90
37886;DHT22;23726;52.520;13.434;2023-01-15T08:09:30;22.80;42.00
37886;DHT22;23726;52.520;13.434;2023-01-15T08:12:00;22.80;42.20
37886;DHT22;23726;52.520;13.434;2023-01-15T08:14:46;22.80;42.00
37886;DHT22;23726;52.520;13.434;2023-01-15T08:17:33;22.80;42.10
37886;DHT22;23726;52.520;13.434;2023-01-15T08:19:59;22.70;42.00
37886;DHT22;23726;52.520;13.434;2023-01-15T08:22:25;22.80;42.20
37886;DHT22;23726;52.520;13.434;2023-01-15T08:24:51;22.80;42.10
37886;DHT22;23726;52.520;13.434;2023-01-15T08:27:18;22.80;41.90
37886;DHT22;23726;52.520;13.434;2023-01-15T08:29:44;22.80;41.90
37886;DHT22;23726;52.520;13.434;2023-01-15T08:32:10;22.80;42.00
37886;DHT22;23726;52.520;13.434;2023-01-15T08:34:35;22.80;42.00
37886;DHT22;23726;52.520;13.434;2023-01-15T08:37:02;22.80;42.20
37886;DHT22;23726;52.520;13.434;2023-01-15T08:39:28;22.80;42.20
37886;DHT22;23726;52.520;13.434;2023-01-15T08:41:55;22.80;42.00
37886;DHT22;23726;52.520;13.434;2023-01-15T08:44:21;22.80;42.00
37886;DHT22;23726;52.520;13.434;2023-01-15T08:46:49;22.80;42.30
37886;DHT22;23726;52.520;13.434;2023-01-15T08:49:18;22.80;42.20
37886;DHT22;23726;52.520;13.434;2023-01-15T08:51:45;22.80;42.00
37886;DHT22;23726;52.520;13.434;2023-01-15T08:54:15;22.80;42.20
37886;DHT22;23726;52.520;13.434;2023-01-15T08:56:41;22.80;42.00
37886;DHT22;23726;52.520;13.434;2023-01-15T08:59:07;22.80;42.20
37886;DHT22;23726;52.520;13.434;2023-01-15T09:01:33;22.80;42.50
37886;DHT22;23726;52.520;13.434;2023-01-15T09:03:59;22.80;42.20
37886;DHT22;23726;52.520;13.434;2023-01-15T09:06:25;22.80;42.40
37886;DHT22;23726;52.520;13.434;2023-01-15T09:08:51;22.80;42.30
37886;DHT22;23726;52.520;13.434;2023-01-15T09:11:18;22.80;42.10
37886;DHT22;23726;52.520;13.434;2023-01-15T09:13:43;22.80;42.30
37886;DHT22;23726;52.520;13.434;2023-01-15T09:16:11;22.80;42.20
37886;DHT22;23726;52.520;13.434;2023-01-15T09:18:39;22.80;42.20
37886;DHT22;23726;52.520;13.434;2023-01-15T09:21:05;22.80;42.10
37886;DHT22;23726;52.520;13.434;2023-01-15T09:23:32;22.80;42.10
37886;DHT22;23726;52.520;13.434;2023-01-15T09:26:00;22.80;42.30
37886;DHT22;23726;52.520;13.434;2023-01-15T09:28:29;22.80;42.10
37886;DHT22;23726;52.520;13.434;2023-01-15T09:30:55;22.80;42.40
37886;DHT22;23726;52.520;13.434;2023-01-15T09:33:20;22.80;42.20
37886;DHT22;23726;52.520;13.434;2023-01-15T09:35:53;22.80;42.20
37886;DHT22;23726;52.520;13.434;2023-01-15T09:38:21;22.80;42.10
37886;DHT22;23726;52.520;13.434;2023-01-15T09:40:55;22.80;42.40
37886;DHT22;23726;52.520;13.434;2023-01-15T09:46:20;22.80;42.40
37886;DHT22;23726;52.520;13.434;2023-01-15T09:49:12;22.80;42.50
37886;DHT22;23726;52.520;13.434;2023-01-15T09:51:55;22.80;42.80
37886;DHT22;23726;52.520;13.434;2023-01-15T09:54:50;22.70;42.10
37886;DHT22;23726;52.520;13.434;2023-01-15T09:57:22;22.70;42.40
37886;DHT22;23726;52.520;13.434;2023-01-15T09:59:50;22.80;42.30
37886;DHT22;23726;52.520;13.434;2023-01-15T10:08:04;22.70;42.40
37886;DHT22;23726;52.520;13.434;2023-01-15T10:10:54;22.70;42.40
37886;DHT22;23726;52.520;13.434;2023-01-15T10:16:11;22.70;42.40
37886;DHT22;23726;52.520;13.434;2023-01-15T10:18:37;22.70;42.60
37886;DHT22;23726;52.520;13.434;2023-01-15T10:21:34;22.70;42.50
37886;DHT22;23726;52.520;13.434;2023-01-15T10:24:18;22.80;42.40
37886;DHT22;23726;52.520;13.434;2023-01-15T10:26:54;22.70;42.90
37886;DHT22;23726;52.520;13.434;2023-01-15T10:29:45;22.70;42.60
37886;DHT22;23726;52.520;13.434;2023-01-15T10:32:46;22.70;42.60
37886;DHT22;23726;52.520;13.434;2023-01-15T10:37:42;22.70;42.60
37886;DHT22;23726;52.520;13.434;2023-01-15T10:46:00;22.70;42.70
37886;DHT22;23726;52.520;13.434;2023-01-15T10:48:40;22.70;42.50
37886;DHT22;23726;52.520;13.434;2023-01-15T10:53:59;22.70;42.90
37886;DHT22;23726;52.520;13.434;2023-01-15T10:59:18;22.70;42.90
37886;DHT22;23726;52.520;13.434;2023-01-15T11:01:50;22.70;43.40
37886;DHT22;23726;52.520;13.434;2023-01-15T11:04:17;22.70;42.70
37886;DHT22;23726;52.520;13.434;2023-01-15T11:06:43;22.70;42.50
37886;DHT22;23726;52.520;13.434;2023-01-15T11:09:22;22.70;42.60
37886;DHT22;23726;52.520;13.434;2023-01-15T11:12:11;22.80;42.50
37886;DHT22;23726;52.520;13.434;2023-01-15T11:14:45;22.70;42.40
37886;DHT22;23726;52.520;13.434;2023-01-15T11:20:45;22.70;42.40
37886;DHT22;23726;52.520;13.434;2023-01-15T11:23:15;22.70;42.70
37886;DHT22;23726;52.520;13.434;2023-01-15T11:25:53;22.70;42.90
37886;DHT22;23726;52.520;13.434;2023-01-15T11:28:37;22.70;42.00
37886;DHT22;23726;52.520;13.434;2023-01-15T11:31:09;22.60;40.20
37886;DHT22;23726;52.520;13.434;2023-01-15T11:33:35;22.50;39.30
37886;DHT22;23726;52.520;13.434;2023-01-15T11:36:05;22.50;38.50
37886;DHT22;23726;52.520;13.434;2023-01-15T11:38:46;22.40;38.40
37886;DHT22;23726;52.520;13.434;2023-01-15T11:41:29;22.40;38.10
37886;DHT22;23726;52.520;13.434;2023-01-15T11:44:19;22.30;37.50
37886;DHT22;23726;52.520;13.434;2023-01-15T11:47:10;22.20;37.30
37886;DHT22;23726;52.520;13.434;2023-01-15T11:49:55;22.20;37.10
37886;DHT22;23726;52.520;13.434;2023-01-15T11:52:53;22.20;36.90
37886;DHT22;23726;52.520;13.434;2023-01-15T11:55:21;22.10;36.70
37886;DHT22;23726;52.520;13.434;2023-01-15T11:57:48;22.10;36.50
37886;DHT22;23726;52.520;13.434;2023-01-15T12:00:31;22.00;36.40
37886;DHT22;23726;52.520;13.434;2023-01-15T12:03:10;22.00;36.50
37886;DHT22;23726;52.520;13.434;2023-01-15T12:05:45;22.00;36.00
37886;DHT22;23726;52.520;13.434;2023-01-15T12:08:22;22.00;36.20
37886;DHT22;23726;52.520;13.434;2023-01-15T12:11:08;22.00;36.00
37886;DHT22;23726;52.520;13.434;2023-01-15T12:16:47;22.00;35.90
37886;DHT22;23726;52.520;13.434;2023-01-15T12:25:22;21.90;35.50
37886;DHT22;23726;52.520;13.434;2023-01-15T12:32:09;21.90;35.90
37886;DHT22;23726;52.520;13.434;2023-01-15T12:52:51;22.20;37.90
37886;DHT22;23726;52.520;13.434;2023-01-15T12:55:24;22.30;38.00
37886;DHT22;23726;52.520;13.434;2023-01-15T12:57:58;22.30;38.10
37886;DHT22;23726;52.520;13.434;2023-01-15T13:00:34;22.30;38.10
37886;DHT22;23726;52.520;13.434;2023-01-15T13:05:55;22.40;38.30
37886;DHT22;23726;52.520;13.434;2023-01-15T13:08:34;22.40;38.70
37886;DHT22;23726;52.520;13.434;2023-01-15T13:11:01;22.40;38.60
37886;DHT22;23726;52.520;13.434;2023-01-15T13:13:38;22.40;38.40
37886;DHT22;23726;52.520;13.434;2023-01-15T13:21:13;22.40;38.60
37886;DHT22;23726;52.520;13.434;2023-01-15T13:32:25;22.50;38.80
37886;DHT22;23726;52.520;13.434;2023-01-15T13:35:11;22.50;38.80
37886;DHT22;23726;52.520;13.434;2023-01-15T13:37:48;22.50;38.90
37886;DHT22;23726;52.520;13.434;2023-01-15T13:40:28;22.50;38.90
37886;DHT22;23726;52.520;13.434;2023-01-15T13:42:57;22.50;39.00
37886;DHT22;23726;52.520;13.434;2023-01-15T13:45:42;22.50;39.00
37886;DHT22;23726;52.520;13.434;2023-01-15T13:48:30;22.50;39.20
37886;DHT22;23726;52.520;13.434;2023-01-15T13:50:59;22.50;39.00
37886;DHT22;23726;52.520;13.434;2023-01-15T13:53:39;22.50;39.00
37886;DHT22;23726;52.520;13.434;2023-01-15T13:56:10;22.50;39.00
37886;DHT22;23726;52.520;13.434;2023-01-15T13:58:54;22.60;39.20
37886;DHT22;23726;52.520;13.434;2023-01-15T14:01:30;22.60;39.40
37886;DHT22;23726;52.520;13.434;2023-01-15T14:04:13;22.60;39.20
37886;DHT22;23726;52.520;13.434;2023-01-15T14:06:50;22.60;39.10
37886;DHT22;23726;52.520;13.434;2023-01-15T14:17:46;22.60;39.20
37886;DHT22;23726;52.520;13.434;2023-01-15T14:23:23;22.60;39.40
37886;DHT22;23726;52.520;13.434;2023-01-15T14:34:28;22.60;39.60
37886;DHT22;23726;52.520;13.434;2023-01-15T14:37:01;22.60;39.50
37886;DHT22;23726;52.520;13.434;2023-01-15T14:39:37;22.60;39.50
37886;DHT22;23726;52.520;13.434;2023-01-15T14:45:46;22.60;39.70
37886;DHT22;23726;52.520;13.434;2023-01-15T14:47:52;22.60;39.70
37886;DHT22;23726;52.520;13.434;2023-01-15T14:50:30;22.60;39.70
37886;DHT22;23726;52.520;13.434;2023-01-15T14:53:16;22.60;39.80
37886;DHT22;23726;52.520;13.434;2023-01-15T14:55:54;22.60;40.20
37886;DHT22;23726;52.520;13.434;2023-01-15T15:03:53;22.60;40.00
37886;DHT22;23726;52.520;13.434;2023-01-15T15:06:20;22.60;40.10
37886;DHT22;23726;52.520;13.434;2023-01-15T15:08:47;22.60;40.00
37886;DHT22;23726;52.520;13.434;2023-01-15T15:11:24;22.60;40.00
37886;DHT22;23726;52.520;13.434;2023-01-15T15:14:13;22.60;40.20
37886;DHT22;23726;52.520;13.434;2023-01-15T15:16:43;22.60;40.10
37886;DHT22;23726;52.520;13.434;2023-01-15T15:19:17;22.60;40.10
37886;DHT22;23726;52.520;13.434;2023-01-15T15:21:47;22.60;40.20
37886;DHT22;23726;52.520;13.434;2023-01-15T15:24:15;22.60;40.10
37886;DHT22;23726;52.520;13.434;2023-01-15T15:26:43;22.60;40.10
37886;DHT22;23726;52.520;13.434;2023-01-15T15:29:14;22.70;40.30
37886;DHT22;23726;52.520;13.434;2023-01-15T15:31:44;22.60;40.10
37886;DHT22;23726;52.520;13.434;2023-01-15T15:34:33;22.60;40.10
37886;DHT22;23726;52.520;13.434;2023-01-15T15:37:16;22.60;40.20
37886;DHT22;23726;52.520;13.434;2023-01-15T15:40:32;22.60;40.10
37886;DHT22;23726;52.520;13.434;2023-01-15T15:42:52;22.60;40.30
37886;DHT22;23726;52.520;13.434;2023-01-15T15:45:38;22.60;40.20
37886;DHT22;23726;52.520;13.434;2023-01-15T15:48:31;22.60;40.30
37886;DHT22;23726;52.520;13.434;2023-01-15T15:53:47;22.60;40.30
37886;DHT22;23726;52.520;13.434;2023-01-15T15:56:15;22.60;40.30
37886;DHT22;23726;52.520;13.434;2023-01-15T15:58:41;22.60;41.10
37886;DHT22;23726;52.520;13.434;2023-01-15T16:01:12;22.60;40.50
37886;DHT22;23726;52.520;13.434;2023-01-15T16:03:44;22.60;40.50
37886;DHT22;23726;52.520;13.434;2023-01-15T16:06:28;22.60;40.50
37886;DHT22;23726;52.520;13.434;2023-01-15T16:08:57;22.60;40.50
37886;DHT22;23726;52.520;13.434;2023-01-15T16:11:29;22.60;40.50
37886;DHT22;23726;52.520;13.434;2023-01-15T16:13:57;22.70;40.50
37886;DHT22;23726;52.520;13.434;2023-01-15T16:16:26;22.70;40.60
37886;DHT22;23726;52.520;13.434;2023-01-15T16:18:54;22.70;40.60
37886;DHT22;23726;52.520;13.434;2023-01-15T16:21:32;22.60;40.50
37886;DHT22;23726;52.520;13.434;2023-01-15T16:24:05;22.70;40.60
37886;DHT22;23726;52.520;13.434;2023-01-15T16:26:35;22.60;40.50
37886;DHT22;23726;52.520;13.434;2023-01-15T16:29:18;22.70;40.60
37886;DHT22;23726;52.520;13.434;2023-01-15T16:31:45;22.70;40.60
37886;DHT22;23726;52.520;13.434;2023-01-15T16:34:19;22.70;40.60
37886;DHT22;23726;52.520;13.434;2023-01-15T16:36:46;22.70;40.60
37886;DHT22;23726;52.520;13.434;2023-01-15T16:39:22;22.60;40.60
37886;DHT22;23726;52.520;13.434;2023-01-15T16:41:49;22.70;40.70
37886;DHT22;23726;52.520;13.434;2023-01-15T16:44:40;22.70;40.60
37886;DHT22;23726;52.520;13.434;2023-01-15T16:47:31;22.70;40.60
37886;DHT22;23726;52.520;13.434;2023-01-15T16:52:51;22.70;40.70
37886;DHT22;23726;52.520;13.434;2023-01-15T16:55:43;22.70;40.70
37886;DHT22;23726;52.520;13.434;2023-01-15T17:00:38;22.70;40.70
37886;DHT22;23726;52.520;13.434;2023-01-15T17:03:19;22.70;41.00
37886;DHT22;23726;52.520;13.434;2023-01-15T17:06:10;22.70;40.80
37886;DHT22;23726;52.520;13.434;2023-01-15T17:08:37;22.70;40.80
37886;DHT22;23726;52.520;13.434;2023-01-15T17:11:06;22.70;40.70
37886;DHT22;23726;52.520;13.434;2023-01-15T17:13:40;22.70;40.80
37886;DHT22;23726;52.520;13.434;2023-01-15T17:18:38;22.70;40.80
37886;DHT22;23726;52.520;13.434;2023-01-15T17:21:04;22.70;40.80
37886;DHT22;23726;52.520;13.434;2023-01-15T17:23:38;22.70;41.30
37886;DHT22;23726;52.520;13.434;2023-01-15T17:26:05;22.70;40.90
37886;DHT22;23726;52.520;13.434;2023-01-15T17:28:33;22.70;40.70
37886;DHT22;23726;52.520;13.434;2023-01-15T17:31:01;22.70;40.80
37886;DHT22;23726;52.520;13.434;2023-01-15T17:33:27;22.70;40.80
37886;DHT22;23726;52.520;13.434;2023-01-15T17:35:52;22.70;40.90
37886;DHT22;23726;52.520;13.434;2023-01-15T17:38:18;22.70;40.80
37886;DHT22;23726;52.520;13.434;2023-01-15T17:40:44;22.80;41.00
37886;DHT22;23726;52.520;13.434;2023-01-15T17:43:14;22.80;40.90
37886;DHT22;23726;52.520;13.434;2023-01-15T17:45:40;22.70;40.90
37886;DHT22;23726;52.520;13.434;2023-01-15T17:48:07;22.70;40.90
37886;DHT22;23726;52.520;13.434;2023-01-15T17:50:34;22.80;40.90
37886;DHT22;23726;52.520;13.434;2023-01-15T17:53:01;22.70;40.90
37886;DHT22;23726;52.520;13.434;2023-01-15T17:55:28;22.70;40.90
37886;DHT22;23726;52.520;13.434;2023-01-15T17:58:13;22.80;40.90
37886;DHT22;23726;52.520;13.434;2023-01-15T18:00:58;22.80;41.00